Amber Beverly — VRHK5 — position and weather

sailwx.info

Track history (hours):
 
Tides and Currents Weather Stations Pressure Air Temp Water Temp Dewpoint Dewpoint Depression Visibility Wind Speed Wind Dir Waves Ship Positions

Amber Beverly

Last reported at 2017-Nov-18 16:44 UTC. Time now 2017-Nov-23 18:27 UTC.
Position S 25°02' W 043°44'.

Length 190 m; draft 12.8 m.

Type: Cargo ship. MMSI: 477317100.

Date/timePositionNaut miles runAvg speedWind from/ knotsBaromVisibWave heightAir tempDewpointWater temp
2017-Nov-18 16:44S 25°02' W 043°44'12412.7
2017-Nov-18 06:57S 24°33' W 045°57'613.3
2017-Nov-18 06:30S 24°32' W 046°04'713.4
2017-Nov-18 06:00S 24°31' W 046°11'713.0
2017-Nov-18 05:30S 24°26' W 046°16'713.0
2017-Nov-18 05:00S 24°21' W 046°21'612.3
2017-Nov-18 04:30S 24°15' W 046°22'612.7
2017-Nov-18 04:00S 24°09' W 046°23'611.2
2017-Nov-18 03:30S 24°03' W 046°22'4 8.1
2017-Nov-18 03:00S 23°60' W 046°20'3 4.9
2017-Nov-18 02:29S 23°58' W 046°18'2 0.1
2017-Nov-17 00:34S 23°57' W 046°19'0 0.0
2017-Nov-17 00:19S 23°57' W 046°19'0 0.0
2017-Nov-16 23:58S 23°57' W 046°19'0 0.0
2017-Nov-16 23:16S 23°57' W 046°19'0 0.0
2017-Nov-16 22:52S 23°57' W 046°19'0 0.0
2017-Nov-16 22:22S 23°57' W 046°19'0 0.0
2017-Nov-16 19:34S 23°57' W 046°19'0 0.0
2017-Nov-16 19:28S 23°57' W 046°19'0 0.0
2017-Nov-16 18:52S 23°57' W 046°19'0 0.0
2017-Nov-16 18:25S 23°57' W 046°19'0 0.0
2017-Nov-16 17:55S 23°57' W 046°19'0 0.0
2017-Nov-16 17:28S 23°57' W 046°19'0 0.0
2017-Nov-16 16:55S 23°57' W 046°19'0 0.0
2017-Nov-16 16:28S 23°57' W 046°19'0 0.0
2017-Nov-16 15:58S 23°57' W 046°19'0 0.0
2017-Nov-16 15:22S 23°57' W 046°19'0 0.0
2017-Nov-16 14:58S 23°57' W 046°19'0 0.1
2017-Nov-16 14:24S 23°57' W 046°19'2 4.6
2017-Nov-16 14:00S 23°58' W 046°18'3 6.9
2017-Nov-16 13:30S 24°01' W 046°20'3 5.6
2017-Nov-16 13:01S 24°03' W 046°21'4 8.1
2017-Nov-16 12:30S 24°07' W 046°21'0 0.5
2017-Nov-16 11:54S 24°07' W 046°21'0 0.0
2017-Nov-16 11:30S 24°07' W 046°21'0 0.0
2017-Nov-16 10:36S 24°07' W 046°21'0 0.1
2017-Nov-16 10:30S 24°07' W 046°21'0 0.0
2017-Nov-16 10:00S 24°07' W 046°21'0 0.0
2017-Nov-16 09:30S 24°07' W 046°21'0 0.0
2017-Nov-16 09:00S 24°07' W 046°21'0 0.0
2017-Nov-16 08:21S 24°07' W 046°21'0 0.0
2017-Nov-16 08:00S 24°07' W 046°21'0 0.0
2017-Nov-16 07:27S 24°07' W 046°21'0 0.0
2017-Nov-16 07:00S 24°07' W 046°21'0 0.0
2017-Nov-16 06:30S 24°07' W 046°21'0 0.0
2017-Nov-16 05:57S 24°07' W 046°21'0 0.0
2017-Nov-16 05:30S 24°07' W 046°21'0 0.0
2017-Nov-16 05:00S 24°07' W 046°21'0 0.0
2017-Nov-16 04:30S 24°07' W 046°21'0 0.0
2017-Nov-16 04:00S 24°07' W 046°21'0 0.0
2017-Nov-16 03:30S 24°07' W 046°21'0 0.0
2017-Nov-16 03:00S 24°07' W 046°21'0 0.0
2017-Nov-16 02:30S 24°07' W 046°21'0 0.0
2017-Nov-16 02:00S 24°07' W 046°21'0 0.0
2017-Nov-16 01:30S 24°07' W 046°21'0 0.0
2017-Nov-16 00:57S 24°07' W 046°21'0 0.0
2017-Nov-16 00:30S 24°07' W 046°21'0 0.0
2017-Nov-16 00:00S 24°07' W 046°21'0 0.1
2017-Nov-15 23:30S 24°07' W 046°21'0 0.0
2017-Nov-15 23:00S 24°07' W 046°21'0 0.0
2017-Nov-15 22:27S 24°07' W 046°21'0 0.0
2017-Nov-15 22:00S 24°07' W 046°21'0 0.0
2017-Nov-15 21:30S 24°07' W 046°21'0 0.0
2017-Nov-15 21:00S 24°07' W 046°21'0 0.1
2017-Nov-15 20:30S 24°07' W 046°21'0 0.0
2017-Nov-15 19:54S 24°07' W 046°21'0 0.0
2017-Nov-15 19:30S 24°07' W 046°21'0 0.0
2017-Nov-15 19:00S 24°07' W 046°21'0 0.0
2017-Nov-15 18:30S 24°07' W 046°21'0 0.0
2017-Nov-15 17:48S 24°07' W 046°21'0 0.0
2017-Nov-15 17:30S 24°07' W 046°21'0 0.0
2017-Nov-15 16:54S 24°07' W 046°21'0 0.0
2017-Nov-15 16:30S 24°07' W 046°21'0 0.0
2017-Nov-15 16:00S 24°07' W 046°21'0 0.0
2017-Nov-15 15:30S 24°07' W 046°21'0 0.0
2017-Nov-15 15:00S 24°07' W 046°21'0 0.0
2017-Nov-15 14:30S 24°07' W 046°21'0 0.0
2017-Nov-15 14:00S 24°07' W 046°21'0 0.0
2017-Nov-15 13:30S 24°07' W 046°21'0 0.0
2017-Nov-15 13:00S 24°07' W 046°21'0 0.0
2017-Nov-15 12:30S 24°07' W 046°21'0 0.0
2017-Nov-15 12:00S 24°07' W 046°21'0 0.0
2017-Nov-15 11:30S 24°07' W 046°21'0 0.1
2017-Nov-15 11:00S 24°07' W 046°21'0 0.0
2017-Nov-15 10:30S 24°08' W 046°21'0 0.0
2017-Nov-15 10:00S 24°08' W 046°21'0 0.0
2017-Nov-15 09:30S 24°08' W 046°21'0 0.0
2017-Nov-15 09:00S 24°08' W 046°21'0 0.0
2017-Nov-15 08:30S 24°08' W 046°21'0 0.0
2017-Nov-15 07:57S 24°08' W 046°21'0 0.0
2017-Nov-15 07:27S 24°08' W 046°21'0 0.1
2017-Nov-15 07:00S 24°07' W 046°21'0 0.0
2017-Nov-15 06:24S 24°07' W 046°21'0 0.0
2017-Nov-15 06:00S 24°07' W 046°21'0 0.0
2017-Nov-15 05:24S 24°07' W 046°21'0 0.0
2017-Nov-15 04:48S 24°07' W 046°21'0 0.0
2017-Nov-15 04:30S 24°07' W 046°21'0 0.0
2017-Nov-15 03:54S 24°07' W 046°21'0 0.0
2017-Nov-15 03:30S 24°07' W 046°21'0 0.0
2017-Nov-15 03:00S 24°07' W 046°21'0 0.0
2017-Nov-15 02:24S 24°07' W 046°21'0 0.0
2017-Nov-15 01:57S 24°07' W 046°21'0 0.0
2017-Nov-15 01:30S 24°07' W 046°21'0 0.0
2017-Nov-15 00:54S 24°07' W 046°21'0 0.0
2017-Nov-15 00:30S 24°07' W 046°21'0 0.0
2017-Nov-15 00:00S 24°07' W 046°21'0 0.0
2017-Nov-14 23:30S 24°07' W 046°21'0 0.0
2017-Nov-14 23:00S 24°07' W 046°21'0 0.0
2017-Nov-14 22:30S 24°07' W 046°21'0 0.0
2017-Nov-14 22:00S 24°07' W 046°21'0 0.0
2017-Nov-14 21:30S 24°07' W 046°21'0 0.0
2017-Nov-14 21:00S 24°07' W 046°21'0 0.0
2017-Nov-14 20:30S 24°07' W 046°21'0 0.1
2017-Nov-14 20:00S 24°07' W 046°21'0 0.0
2017-Nov-14 19:30S 24°07' W 046°21'0 0.1
2017-Nov-14 19:00S 24°07' W 046°21'0 0.0
2017-Nov-14 18:30S 24°07' W 046°21'0 0.0
2017-Nov-14 18:00S 24°07' W 046°21'0 0.0
2017-Nov-14 17:30S 24°07' W 046°21'0 0.0
2017-Nov-14 16:57S 24°07' W 046°21'0 0.0
2017-Nov-14 16:30S 24°07' W 046°21'0 0.0
2017-Nov-14 16:00S 24°07' W 046°21'0 0.0
2017-Nov-14 15:30S 24°07' W 046°21'0 0.0
2017-Nov-14 15:00S 24°07' W 046°21'0 0.0
2017-Nov-14 14:30S 24°07' W 046°21'0 0.0
2017-Nov-14 14:00S 24°07' W 046°21'0 0.0
2017-Nov-14 13:30S 24°07' W 046°21'0 0.0
2017-Nov-14 13:00S 24°07' W 046°21'0 0.0
2017-Nov-14 12:27S 24°07' W 046°21'0 0.0
2017-Nov-14 12:00S 24°07' W 046°21'0 0.0
2017-Nov-14 11:30S 24°07' W 046°21'0 0.0
2017-Nov-14 11:00S 24°07' W 046°21'0 0.0
2017-Nov-14 10:24S 24°07' W 046°21'0 0.0
2017-Nov-14 10:00S 24°07' W 046°21'0 0.0
2017-Nov-14 09:30S 24°07' W 046°21'0 0.0
2017-Nov-14 09:00S 24°07' W 046°21'0 0.0
2017-Nov-14 08:30S 24°07' W 046°21'0 0.0
2017-Nov-14 08:00S 24°07' W 046°21'0 0.0
2017-Nov-14 07:30S 24°07' W 046°21'0 0.0
2017-Nov-14 07:00S 24°07' W 046°21'0 0.0
2017-Nov-14 06:30S 24°07' W 046°21'0 0.0
2017-Nov-14 06:00S 24°07' W 046°21'0 0.0
2017-Nov-14 05:27S 24°07' W 046°21'0 0.0
2017-Nov-14 05:00S 24°07' W 046°21'0 0.0
2017-Nov-14 04:30S 24°07' W 046°21'0 0.0
2017-Nov-14 04:00S 24°07' W 046°21'0 0.0
2017-Nov-14 03:30S 24°07' W 046°21'0 0.1
2017-Nov-14 03:00S 24°07' W 046°21'0 0.0
2017-Nov-14 02:18S 24°07' W 046°21'0 0.0
2017-Nov-14 01:54S 24°07' W 046°21'0 0.0
2017-Nov-14 01:30S 24°07' W 046°21'0 0.0
2017-Nov-14 01:00S 24°07' W 046°21'0 0.0
2017-Nov-14 00:30S 24°07' W 046°21'0 0.0
2017-Nov-14 00:00S 24°07' W 046°21'0 0.0
2017-Nov-13 23:30S 24°07' W 046°21'0 0.0
2017-Nov-13 23:00S 24°07' W 046°21'0 0.1
2017-Nov-13 22:30S 24°07' W 046°21'0 0.1
2017-Nov-13 21:54S 24°07' W 046°21'0 0.0
2017-Nov-13 02:00S 24°07' W 046°21'0 0.0
2017-Nov-13 01:24S 24°07' W 046°21'0 0.0
2017-Nov-13 01:00S 24°07' W 046°21'0 0.0
2017-Nov-13 00:30S 24°07' W 046°21'0 0.0
2017-Nov-13 00:00S 24°07' W 046°21'0 0.0
2017-Nov-12 23:30S 24°07' W 046°21'0 0.0
2017-Nov-12 22:57S 24°07' W 046°21'0 0.0
2017-Nov-12 22:30S 24°07' W 046°21'0 0.0
2017-Nov-12 22:00S 24°07' W 046°21'0 0.0
2017-Nov-12 21:30S 24°07' W 046°21'0 0.0
2017-Nov-12 21:00S 24°07' W 046°21'0 0.0
2017-Nov-12 20:24S 24°07' W 046°21'0 0.0
2017-Nov-12 19:54S 24°07' W 046°21'0 0.0
2017-Nov-12 19:30S 24°07' W 046°21'0 0.0
2017-Nov-12 19:00S 24°07' W 046°21'0 0.0
2017-Nov-12 18:30S 24°07' W 046°21'0 0.0
2017-Nov-12 17:54S 24°07' W 046°21'0 0.0
2017-Nov-12 17:30S 24°07' W 046°21'0 0.0
2017-Nov-12 17:00S 24°07' W 046°21'0 0.0
2017-Nov-12 16:30S 24°07' W 046°21'0 0.0
2017-Nov-12 15:48S 24°07' W 046°21'0 0.0
2017-Nov-12 15:30S 24°07' W 046°21'0 0.0
2017-Nov-12 15:00S 24°07' W 046°21'0 0.0
2017-Nov-12 14:30S 24°07' W 046°21'0 0.0
2017-Nov-12 14:00S 24°07' W 046°21'0 0.0
2017-Nov-12 13:27S 24°07' W 046°21'0 0.0
2017-Nov-12 12:54S 24°07' W 046°21'0 0.0
2017-Nov-12 12:27S 24°07' W 046°21'0 0.0
2017-Nov-12 12:00S 24°07' W 046°21'0 0.0
2017-Nov-12 11:30S 24°07' W 046°21'0 0.0
2017-Nov-12 11:00S 24°07' W 046°21'0 0.0
2017-Nov-12 10:30S 24°07' W 046°21'0 0.0
2017-Nov-12 09:57S 24°07' W 046°21'0 0.0
2017-Nov-12 09:30S 24°07' W 046°21'0 0.0
2017-Nov-12 09:00S 24°07' W 046°21'0 0.0
2017-Nov-12 08:30S 24°07' W 046°21'0 0.0
2017-Nov-12 07:54S 24°07' W 046°21'0 0.0
2017-Nov-12 07:30S 24°07' W 046°21'0 0.0
2017-Nov-12 07:00S 24°08' W 046°21'0 0.0
2017-Nov-12 06:30S 24°08' W 046°21'0 0.0
2017-Nov-12 06:00S 24°07' W 046°21'0 0.0
2017-Nov-12 05:30S 24°07' W 046°21'0 0.0
2017-Nov-12 05:00S 24°07' W 046°21'0 0.0
2017-Nov-12 04:18S 24°08' W 046°21'0 0.1
2017-Nov-12 04:00S 24°07' W 046°21'0 0.0
2017-Nov-12 03:30S 24°07' W 046°21'0 0.0
2017-Nov-12 03:00S 24°07' W 046°21'0 0.0
2017-Nov-12 02:30S 24°07' W 046°21'0 0.0
2017-Nov-12 02:00S 24°07' W 046°21'0 0.0
2017-Nov-12 01:30S 24°07' W 046°21'0 0.1
2017-Nov-12 01:00S 24°07' W 046°21'0 0.0
2017-Nov-12 00:30S 24°07' W 046°21'0 0.0
2017-Nov-12 00:00S 24°07' W 046°21'0 0.0
2017-Nov-11 23:30S 24°07' W 046°21'0 0.0
2017-Nov-11 23:00S 24°07' W 046°21'0 0.0
2017-Nov-11 22:30S 24°07' W 046°21'0 0.0
2017-Nov-11 22:00S 24°07' W 046°21'0 0.0
2017-Nov-11 21:30S 24°07' W 046°21'0 0.0
2017-Nov-11 21:00S 24°07' W 046°21'0 0.0
2017-Nov-11 20:30S 24°07' W 046°21'0 0.0
2017-Nov-11 20:00S 24°07' W 046°21'0 0.0
2017-Nov-11 19:30S 24°07' W 046°21'0 0.0
2017-Nov-11 19:00S 24°07' W 046°21'0 0.0
2017-Nov-11 18:30S 24°07' W 046°21'0 0.0
2017-Nov-11 18:00S 24°07' W 046°21'0 0.0
2017-Nov-11 17:30S 24°07' W 046°21'0 0.0
2017-Nov-11 17:00S 24°07' W 046°21'0 0.0
2017-Nov-11 16:24S 24°07' W 046°21'0 0.0
2017-Nov-11 16:00S 24°07' W 046°21'0 0.0
2017-Nov-11 15:30S 24°07' W 046°21'0 0.0
2017-Nov-11 15:00S 24°07' W 046°21'0 0.0
2017-Nov-11 14:30S 24°07' W 046°21'0 0.0
2017-Nov-11 14:00S 24°07' W 046°21'0 0.0
2017-Nov-11 13:18S 24°07' W 046°21'0 0.0
2017-Nov-11 13:00S 24°07' W 046°21'0 0.0
2017-Nov-11 12:30S 24°07' W 046°21'0 0.0
2017-Nov-11 12:00S 24°07' W 046°21'0 0.1
2017-Nov-11 11:30S 24°07' W 046°21'0 0.0
2017-Nov-11 11:00S 24°07' W 046°21'0 0.0
2017-Nov-11 10:30S 24°07' W 046°21'0 0.0
2017-Nov-11 10:00S 24°07' W 046°21'0 0.0
2017-Nov-11 09:30S 24°07' W 046°21'0 0.0
2017-Nov-11 08:57S 24°07' W 046°21'0 0.0
2017-Nov-11 08:30S 24°07' W 046°21'0 0.0
2017-Nov-11 08:00S 24°07' W 046°21'0 0.0
2017-Nov-11 07:27S 24°07' W 046°21'0 0.0
2017-Nov-11 07:00S 24°07' W 046°21'0 0.0
2017-Nov-11 06:24S 24°07' W 046°21'0 0.1
2017-Nov-11 06:00S 24°07' W 046°21'0 0.0
2017-Nov-11 05:30S 24°07' W 046°21'0 0.0
2017-Nov-11 05:00S 24°07' W 046°21'0 0.0
2017-Nov-11 04:30S 24°07' W 046°21'0 0.0
2017-Nov-11 03:57S 24°07' W 046°21'0 0.1
2017-Nov-11 03:24S 24°07' W 046°21'0 0.0
2017-Nov-11 03:00S 24°07' W 046°21'0 0.0
2017-Nov-11 02:24S 24°07' W 046°21'0 0.0
2017-Nov-11 02:00S 24°07' W 046°21'0 0.1
2017-Nov-11 01:21S 24°07' W 046°21'0 0.1
2017-Nov-11 01:00S 24°07' W 046°21'0 0.3
2017-Nov-11 00:27S 24°07' W 046°21'0 0.1
2017-Nov-11 00:00S 24°07' W 046°21'0 0.0
2017-Nov-10 23:24S 24°07' W 046°21'0 0.1
2017-Nov-10 23:00S 24°08' W 046°21'0 0.0
2017-Nov-10 22:30S 24°08' W 046°21'0 0.0
2017-Nov-10 22:00S 24°07' W 046°21'0 0.0
2017-Nov-10 21:27S 24°07' W 046°21'0 0.0
2017-Nov-10 21:00S 24°07' W 046°21'0 0.0
2017-Nov-10 20:30S 24°07' W 046°21'0 0.0
2017-Nov-10 19:48S 24°07' W 046°21'0 0.0
2017-Nov-10 19:30S 24°07' W 046°21'0 0.0
2017-Nov-10 18:54S 24°07' W 046°21'0 0.0
2017-Nov-10 18:30S 24°07' W 046°21'0 0.0
2017-Nov-10 18:00S 24°07' W 046°21'0 0.0
2017-Nov-10 17:24S 24°07' W 046°21'0 0.0
2017-Nov-10 17:00S 24°07' W 046°21'0 0.0
2017-Nov-10 16:24S 24°07' W 046°21'0 0.0
2017-Nov-10 15:54S 24°07' W 046°21'0 0.0
2017-Nov-10 15:30S 24°07' W 046°21'0 0.0
2017-Nov-10 15:00S 24°07' W 046°21'0 0.0
2017-Nov-10 14:30S 24°08' W 046°21'1 1.3
2017-Nov-10 14:00S 24°08' W 046°22'3 6.4
2017-Nov-10 13:30S 24°04' W 046°22'5 9.3
2017-Nov-10 13:00S 24°00' W 046°20'3 5.6
2017-Nov-10 12:30S 23°59' W 046°17'0 0.6
2017-Nov-10 12:00S 23°58' W 046°17'0 0.0
2017-Nov-10 11:30S 23°58' W 046°17'0 0.0
2017-Nov-10 11:00S 23°58' W 046°17'0 0.0
2017-Nov-10 10:24S 23°58' W 046°17'0 0.0
2017-Nov-10 10:00S 23°58' W 046°17'0 0.0
2017-Nov-10 09:30S 23°58' W 046°17'0 0.0
2017-Nov-10 09:00S 23°58' W 046°17'0 0.0
2017-Nov-10 08:30S 23°58' W 046°17'0 0.0
2017-Nov-10 08:00S 23°58' W 046°17'0 0.0
2017-Nov-10 07:21S 23°58' W 046°17'0 0.0
2017-Nov-10 07:00S 23°58' W 046°17'0 0.0
2017-Nov-10 06:30S 23°58' W 046°17'0 0.0
2017-Nov-10 05:57S 23°58' W 046°17'0 0.0
2017-Nov-10 05:30S 23°58' W 046°17'0 0.0
2017-Nov-10 04:48S 23°58' W 046°17'0 0.0
2017-Nov-10 04:30S 23°58' W 046°17'0 0.0
2017-Nov-10 03:57S 23°58' W 046°17'0 0.0
2017-Nov-10 03:30S 23°58' W 046°17'0 0.0
2017-Nov-10 03:00S 23°58' W 046°17'0 0.0
2017-Nov-10 02:27S 23°58' W 046°17'0 0.0
2017-Nov-10 02:00S 23°58' W 046°17'0 0.0
2017-Nov-10 01:30S 23°58' W 046°17'0 0.0
2017-Nov-10 00:48S 23°58' W 046°17'0 0.0
2017-Nov-10 00:24S 23°58' W 046°17'0 0.0
2017-Nov-10 00:00S 23°58' W 046°17'0 0.0
2017-Nov-09 23:30S 23°58' W 046°17'0 0.0
2017-Nov-09 22:54S 23°58' W 046°17'0 0.0
2017-Nov-09 22:30S 23°58' W 046°17'0 0.0
2017-Nov-09 22:00S 23°58' W 046°17'0 0.0
2017-Nov-09 21:30S 23°58' W 046°17'0 0.0
2017-Nov-09 21:00S 23°58' W 046°17'0 0.0
2017-Nov-09 20:30S 23°58' W 046°17'0 0.0
2017-Nov-09 19:57S 23°58' W 046°17'0 0.0
2017-Nov-09 19:30S 23°58' W 046°17'0 0.0
2017-Nov-09 18:57S 23°58' W 046°17'0 0.0
2017-Nov-09 18:21S 23°58' W 046°17'0 0.0
2017-Nov-09 18:00S 23°58' W 046°17'0 0.0
2017-Nov-09 17:30S 23°58' W 046°17'0 0.0
2017-Nov-09 16:18S 23°58' W 046°17'0 0.0
2017-Nov-09 15:54S 23°58' W 046°17'0 0.0
2017-Nov-09 15:30S 23°58' W 046°17'0 0.0
2017-Nov-09 15:00S 23°58' W 046°17'0 0.0
2017-Nov-09 14:30S 23°58' W 046°17'0 0.0
2017-Nov-09 13:57S 23°58' W 046°17'0 0.0
2017-Nov-09 13:30S 23°58' W 046°17'0 0.0
2017-Nov-09 13:00S 23°58' W 046°17'0 0.0
2017-Nov-09 12:24S 23°58' W 046°17'0 0.0
2017-Nov-09 12:00S 23°58' W 046°17'0 0.0
2017-Nov-09 11:30S 23°58' W 046°17'0 0.0
2017-Nov-09 11:00S 23°58' W 046°17'0 0.0
2017-Nov-09 10:30S 23°58' W 046°17'0 0.0
2017-Nov-09 10:00S 23°58' W 046°17'0 0.0
2017-Nov-09 09:30S 23°58' W 046°17'0 0.0
2017-Nov-09 09:00S 23°58' W 046°17'0 0.0
2017-Nov-09 08:30S 23°58' W 046°17'0 0.0
2017-Nov-09 08:00S 23°58' W 046°17'0 0.0
2017-Nov-09 07:30S 23°58' W 046°17'0 0.0
2017-Nov-09 07:00S 23°58' W 046°17'0 0.0
2017-Nov-09 06:30S 23°58' W 046°17'0 0.0
2017-Nov-09 06:00S 23°58' W 046°17'0 0.0
2017-Nov-09 05:30S 23°58' W 046°17'0 0.0
2017-Nov-09 05:00S 23°58' W 046°17'0 0.0
2017-Nov-09 04:30S 23°58' W 046°17'0 0.0
2017-Nov-09 04:00S 23°58' W 046°17'0 0.0
2017-Nov-09 03:30S 23°58' W 046°17'0 0.0
2017-Nov-09 02:54S 23°58' W 046°17'0 0.0
2017-Nov-09 02:21S 23°58' W 046°17'0 0.0
2017-Nov-09 01:54S 23°58' W 046°17'0 0.0
2017-Nov-09 01:30S 23°58' W 046°17'0 0.0
2017-Nov-09 01:00S 23°58' W 046°17'0 0.0
2017-Nov-09 00:30S 23°58' W 046°17'0 0.0
2017-Nov-08 23:42S 23°58' W 046°17'0 0.0
2017-Nov-08 23:30S 23°58' W 046°17'0 0.0
2017-Nov-08 23:00S 23°58' W 046°17'0 0.0
2017-Nov-08 22:30S 23°58' W 046°17'0 0.0
2017-Nov-08 22:00S 23°58' W 046°17'0 0.0
2017-Nov-08 21:24S 23°58' W 046°17'0 0.0
2017-Nov-08 21:00S 23°58' W 046°17'0 0.0
2017-Nov-08 20:30S 23°58' W 046°17'0 0.0
2017-Nov-08 20:00S 23°58' W 046°17'0 0.0
2017-Nov-08 19:30S 23°58' W 046°17'0 0.0
2017-Nov-08 19:00S 23°58' W 046°17'0 0.0
2017-Nov-08 18:30S 23°58' W 046°17'0 0.0
2017-Nov-08 18:00S 23°58' W 046°17'0 0.0
2017-Nov-08 17:30S 23°58' W 046°17'0 0.0
2017-Nov-08 17:00S 23°58' W 046°17'  
Track history (hours):
 
Tides and Currents Weather Stations Pressure Air Temp Water Temp Dewpoint Dewpoint Depression Visibility Wind Speed Wind Dir Waves Ship Positions

Amber Beverly

Last reported at 2017-Nov-18 16:44 UTC. Time now 2017-Nov-23 18:27 UTC.
Position S 25°02' W 043°44'.

Length 190 m; draft 12.8 m.

Type: Cargo ship. MMSI: 477317100.

Date/timePositionNaut miles runAvg speedWind from/ knotsBaromVisibWave heightAir tempDewpointWater temp
2017-Nov-18 16:44S 25°02' W 043°44'12412.7
2017-Nov-18 06:57S 24°33' W 045°57'613.3
2017-Nov-18 06:30S 24°32' W 046°04'713.4
2017-Nov-18 06:00S 24°31' W 046°11'713.0
2017-Nov-18 05:30S 24°26' W 046°16'713.0
2017-Nov-18 05:00S 24°21' W 046°21'612.3
2017-Nov-18 04:30S 24°15' W 046°22'612.7
2017-Nov-18 04:00S 24°09' W 046°23'611.2
2017-Nov-18 03:30S 24°03' W 046°22'4 8.1
2017-Nov-18 03:00S 23°60' W 046°20'3 4.9
2017-Nov-18 02:29S 23°58' W 046°18'2 0.1
2017-Nov-17 00:34S 23°57' W 046°19'0 0.0
2017-Nov-17 00:19S 23°57' W 046°19'0 0.0
2017-Nov-16 23:58S 23°57' W 046°19'0 0.0
2017-Nov-16 23:16S 23°57' W 046°19'0 0.0
2017-Nov-16 22:52S 23°57' W 046°19'0 0.0
2017-Nov-16 22:22S 23°57' W 046°19'0 0.0
2017-Nov-16 19:34S 23°57' W 046°19'0 0.0
2017-Nov-16 19:28S 23°57' W 046°19'0 0.0
2017-Nov-16 18:52S 23°57' W 046°19'0 0.0
2017-Nov-16 18:25S 23°57' W 046°19'0 0.0
2017-Nov-16 17:55S 23°57' W 046°19'0 0.0
2017-Nov-16 17:28S 23°57' W 046°19'0 0.0
2017-Nov-16 16:55S 23°57' W 046°19'0 0.0
2017-Nov-16 16:28S 23°57' W 046°19'0 0.0
2017-Nov-16 15:58S 23°57' W 046°19'0 0.0
2017-Nov-16 15:22S 23°57' W 046°19'0 0.0
2017-Nov-16 14:58S 23°57' W 046°19'0 0.1
2017-Nov-16 14:24S 23°57' W 046°19'2 4.6
2017-Nov-16 14:00S 23°58' W 046°18'3 6.9
2017-Nov-16 13:30S 24°01' W 046°20'3 5.6
2017-Nov-16 13:01S 24°03' W 046°21'4 8.1
2017-Nov-16 12:30S 24°07' W 046°21'0 0.5
2017-Nov-16 11:54S 24°07' W 046°21'0 0.0
2017-Nov-16 11:30S 24°07' W 046°21'0 0.0
2017-Nov-16 10:36S 24°07' W 046°21'0 0.1
2017-Nov-16 10:30S 24°07' W 046°21'0 0.0
2017-Nov-16 10:00S 24°07' W 046°21'0 0.0
2017-Nov-16 09:30S 24°07' W 046°21'0 0.0
2017-Nov-16 09:00S 24°07' W 046°21'0 0.0
2017-Nov-16 08:21S 24°07' W 046°21'0 0.0
2017-Nov-16 08:00S 24°07' W 046°21'0 0.0
2017-Nov-16 07:27S 24°07' W 046°21'0 0.0
2017-Nov-16 07:00S 24°07' W 046°21'0 0.0
2017-Nov-16 06:30S 24°07' W 046°21'0 0.0
2017-Nov-16 05:57S 24°07' W 046°21'0 0.0
2017-Nov-16 05:30S 24°07' W 046°21'0 0.0
2017-Nov-16 05:00S 24°07' W 046°21'0 0.0
2017-Nov-16 04:30S 24°07' W 046°21'0 0.0
2017-Nov-16 04:00S 24°07' W 046°21'0 0.0
2017-Nov-16 03:30S 24°07' W 046°21'0 0.0
2017-Nov-16 03:00S 24°07' W 046°21'0 0.0
2017-Nov-16 02:30S 24°07' W 046°21'0 0.0
2017-Nov-16 02:00S 24°07' W 046°21'0 0.0
2017-Nov-16 01:30S 24°07' W 046°21'0 0.0
2017-Nov-16 00:57S 24°07' W 046°21'0 0.0
2017-Nov-16 00:30S 24°07' W 046°21'0 0.0
2017-Nov-16 00:00S 24°07' W 046°21'0 0.1
2017-Nov-15 23:30S 24°07' W 046°21'0 0.0
2017-Nov-15 23:00S 24°07' W 046°21'0 0.0
2017-Nov-15 22:27S 24°07' W 046°21'0 0.0
2017-Nov-15 22:00S 24°07' W 046°21'0 0.0
2017-Nov-15 21:30S 24°07' W 046°21'0 0.0
2017-Nov-15 21:00S 24°07' W 046°21'0 0.1
2017-Nov-15 20:30S 24°07' W 046°21'0 0.0
2017-Nov-15 19:54S 24°07' W 046°21'0 0.0
2017-Nov-15 19:30S 24°07' W 046°21'0 0.0
2017-Nov-15 19:00S 24°07' W 046°21'0 0.0
2017-Nov-15 18:30S 24°07' W 046°21'0 0.0
2017-Nov-15 17:48S 24°07' W 046°21'0 0.0
2017-Nov-15 17:30S 24°07' W 046°21'0 0.0
2017-Nov-15 16:54S 24°07' W 046°21'0 0.0
2017-Nov-15 16:30S 24°07' W 046°21'0 0.0
2017-Nov-15 16:00S 24°07' W 046°21'0 0.0
2017-Nov-15 15:30S 24°07' W 046°21'0 0.0
2017-Nov-15 15:00S 24°07' W 046°21'0 0.0
2017-Nov-15 14:30S 24°07' W 046°21'0 0.0
2017-Nov-15 14:00S 24°07' W 046°21'0 0.0
2017-Nov-15 13:30S 24°07' W 046°21'0 0.0
2017-Nov-15 13:00S 24°07' W 046°21'0 0.0
2017-Nov-15 12:30S 24°07' W 046°21'0 0.0
2017-Nov-15 12:00S 24°07' W 046°21'0 0.0
2017-Nov-15 11:30S 24°07' W 046°21'0 0.1
2017-Nov-15 11:00S 24°07' W 046°21'0 0.0
2017-Nov-15 10:30S 24°08' W 046°21'0 0.0
2017-Nov-15 10:00S 24°08' W 046°21'0 0.0
2017-Nov-15 09:30S 24°08' W 046°21'0 0.0
2017-Nov-15 09:00S 24°08' W 046°21'0 0.0
2017-Nov-15 08:30S 24°08' W 046°21'0 0.0
2017-Nov-15 07:57S 24°08' W 046°21'0 0.0
2017-Nov-15 07:27S 24°08' W 046°21'0 0.1
2017-Nov-15 07:00S 24°07' W 046°21'0 0.0
2017-Nov-15 06:24S 24°07' W 046°21'0 0.0
2017-Nov-15 06:00S 24°07' W 046°21'0 0.0
2017-Nov-15 05:24S 24°07' W 046°21'0 0.0
2017-Nov-15 04:48S 24°07' W 046°21'0 0.0
2017-Nov-15 04:30S 24°07' W 046°21'0 0.0
2017-Nov-15 03:54S 24°07' W 046°21'0 0.0
2017-Nov-15 03:30S 24°07' W 046°21'0 0.0
2017-Nov-15 03:00S 24°07' W 046°21'0 0.0
2017-Nov-15 02:24S 24°07' W 046°21'0 0.0
2017-Nov-15 01:57S 24°07' W 046°21'0 0.0
2017-Nov-15 01:30S 24°07' W 046°21'0 0.0
2017-Nov-15 00:54S 24°07' W 046°21'0 0.0
2017-Nov-15 00:30S 24°07' W 046°21'0 0.0
2017-Nov-15 00:00S 24°07' W 046°21'0 0.0
2017-Nov-14 23:30S 24°07' W 046°21'0 0.0
2017-Nov-14 23:00S 24°07' W 046°21'0 0.0
2017-Nov-14 22:30S 24°07' W 046°21'0 0.0
2017-Nov-14 22:00S 24°07' W 046°21'0 0.0
2017-Nov-14 21:30S 24°07' W 046°21'0 0.0
2017-Nov-14 21:00S 24°07' W 046°21'0 0.0
2017-Nov-14 20:30S 24°07' W 046°21'0 0.1
2017-Nov-14 20:00S 24°07' W 046°21'0 0.0
2017-Nov-14 19:30S 24°07' W 046°21'0 0.1
2017-Nov-14 19:00S 24°07' W 046°21'0 0.0
2017-Nov-14 18:30S 24°07' W 046°21'0 0.0
2017-Nov-14 18:00S 24°07' W 046°21'0 0.0
2017-Nov-14 17:30S 24°07' W 046°21'0 0.0
2017-Nov-14 16:57S 24°07' W 046°21'0 0.0
2017-Nov-14 16:30S 24°07' W 046°21'0 0.0
2017-Nov-14 16:00S 24°07' W 046°21'0 0.0
2017-Nov-14 15:30S 24°07' W 046°21'0 0.0
2017-Nov-14 15:00S 24°07' W 046°21'0 0.0
2017-Nov-14 14:30S 24°07' W 046°21'0 0.0
2017-Nov-14 14:00S 24°07' W 046°21'0 0.0
2017-Nov-14 13:30S 24°07' W 046°21'0 0.0
2017-Nov-14 13:00S 24°07' W 046°21'0 0.0
2017-Nov-14 12:27S 24°07' W 046°21'0 0.0
2017-Nov-14 12:00S 24°07' W 046°21'0 0.0
2017-Nov-14 11:30S 24°07' W 046°21'0 0.0
2017-Nov-14 11:00S 24°07' W 046°21'0 0.0
2017-Nov-14 10:24S 24°07' W 046°21'0 0.0
2017-Nov-14 10:00S 24°07' W 046°21'0 0.0
2017-Nov-14 09:30S 24°07' W 046°21'0 0.0
2017-Nov-14 09:00S 24°07' W 046°21'0 0.0
2017-Nov-14 08:30S 24°07' W 046°21'0 0.0
2017-Nov-14 08:00S 24°07' W 046°21'0 0.0
2017-Nov-14 07:30S 24°07' W 046°21'0 0.0
2017-Nov-14 07:00S 24°07' W 046°21'0 0.0
2017-Nov-14 06:30S 24°07' W 046°21'0 0.0
2017-Nov-14 06:00S 24°07' W 046°21'0 0.0
2017-Nov-14 05:27S 24°07' W 046°21'0 0.0
2017-Nov-14 05:00S 24°07' W 046°21'0 0.0
2017-Nov-14 04:30S 24°07' W 046°21'0 0.0
2017-Nov-14 04:00S 24°07' W 046°21'0 0.0
2017-Nov-14 03:30S 24°07' W 046°21'0 0.1
2017-Nov-14 03:00S 24°07' W 046°21'0 0.0
2017-Nov-14 02:18S 24°07' W 046°21'0 0.0
2017-Nov-14 01:54S 24°07' W 046°21'0 0.0
2017-Nov-14 01:30S 24°07' W 046°21'0 0.0
2017-Nov-14 01:00S 24°07' W 046°21'0 0.0
2017-Nov-14 00:30S 24°07' W 046°21'0 0.0
2017-Nov-14 00:00S 24°07' W 046°21'0 0.0
2017-Nov-13 23:30S 24°07' W 046°21'0 0.0
2017-Nov-13 23:00S 24°07' W 046°21'0 0.1
2017-Nov-13 22:30S 24°07' W 046°21'0 0.1
2017-Nov-13 21:54S 24°07' W 046°21'0 0.0
2017-Nov-13 02:00S 24°07' W 046°21'0 0.0
2017-Nov-13 01:24S 24°07' W 046°21'0 0.0
2017-Nov-13 01:00S 24°07' W 046°21'0 0.0
2017-Nov-13 00:30S 24°07' W 046°21'0 0.0
2017-Nov-13 00:00S 24°07' W 046°21'0 0.0
2017-Nov-12 23:30S 24°07' W 046°21'0 0.0
2017-Nov-12 22:57S 24°07' W 046°21'0 0.0
2017-Nov-12 22:30S 24°07' W 046°21'0 0.0
2017-Nov-12 22:00S 24°07' W 046°21'0 0.0
2017-Nov-12 21:30S 24°07' W 046°21'0 0.0
2017-Nov-12 21:00S 24°07' W 046°21'0 0.0
2017-Nov-12 20:24S 24°07' W 046°21'0 0.0
2017-Nov-12 19:54S 24°07' W 046°21'0 0.0
2017-Nov-12 19:30S 24°07' W 046°21'0 0.0
2017-Nov-12 19:00S 24°07' W 046°21'0 0.0
2017-Nov-12 18:30S 24°07' W 046°21'0 0.0
2017-Nov-12 17:54S 24°07' W 046°21'0 0.0
2017-Nov-12 17:30S 24°07' W 046°21'0 0.0
2017-Nov-12 17:00S 24°07' W 046°21'0 0.0
2017-Nov-12 16:30S 24°07' W 046°21'0 0.0
2017-Nov-12 15:48S 24°07' W 046°21'0 0.0
2017-Nov-12 15:30S 24°07' W 046°21'0 0.0
2017-Nov-12 15:00S 24°07' W 046°21'0 0.0
2017-Nov-12 14:30S 24°07' W 046°21'0 0.0
2017-Nov-12 14:00S 24°07' W 046°21'0 0.0
2017-Nov-12 13:27S 24°07' W 046°21'0 0.0
2017-Nov-12 12:54S 24°07' W 046°21'0 0.0
2017-Nov-12 12:27S 24°07' W 046°21'0 0.0
2017-Nov-12 12:00S 24°07' W 046°21'0 0.0
2017-Nov-12 11:30S 24°07' W 046°21'0 0.0
2017-Nov-12 11:00S 24°07' W 046°21'0 0.0
2017-Nov-12 10:30S 24°07' W 046°21'0 0.0
2017-Nov-12 09:57S 24°07' W 046°21'0 0.0
2017-Nov-12 09:30S 24°07' W 046°21'0 0.0
2017-Nov-12 09:00S 24°07' W 046°21'0 0.0
2017-Nov-12 08:30S 24°07' W 046°21'0 0.0
2017-Nov-12 07:54S 24°07' W 046°21'0 0.0
2017-Nov-12 07:30S 24°07' W 046°21'0 0.0
2017-Nov-12 07:00S 24°08' W 046°21'0 0.0
2017-Nov-12 06:30S 24°08' W 046°21'0 0.0
2017-Nov-12 06:00S 24°07' W 046°21'0 0.0
2017-Nov-12 05:30S 24°07' W 046°21'0 0.0
2017-Nov-12 05:00S 24°07' W 046°21'0 0.0
2017-Nov-12 04:18S 24°08' W 046°21'0 0.1
2017-Nov-12 04:00S 24°07' W 046°21'0 0.0
2017-Nov-12 03:30S 24°07' W 046°21'0 0.0
2017-Nov-12 03:00S 24°07' W 046°21'0 0.0
2017-Nov-12 02:30S 24°07' W 046°21'0 0.0
2017-Nov-12 02:00S 24°07' W 046°21'0 0.0
2017-Nov-12 01:30S 24°07' W 046°21'0 0.1
2017-Nov-12 01:00S 24°07' W 046°21'0 0.0
2017-Nov-12 00:30S 24°07' W 046°21'0 0.0
2017-Nov-12 00:00S 24°07' W 046°21'0 0.0
2017-Nov-11 23:30S 24°07' W 046°21'0 0.0
2017-Nov-11 23:00S 24°07' W 046°21'0 0.0
2017-Nov-11 22:30S 24°07' W 046°21'0 0.0
2017-Nov-11 22:00S 24°07' W 046°21'0 0.0
2017-Nov-11 21:30S 24°07' W 046°21'0 0.0
2017-Nov-11 21:00S 24°07' W 046°21'0 0.0
2017-Nov-11 20:30S 24°07' W 046°21'0 0.0
2017-Nov-11 20:00S 24°07' W 046°21'0 0.0
2017-Nov-11 19:30S 24°07' W 046°21'0 0.0
2017-Nov-11 19:00S 24°07' W 046°21'0 0.0
2017-Nov-11 18:30S 24°07' W 046°21'0 0.0
2017-Nov-11 18:00S 24°07' W 046°21'0 0.0
2017-Nov-11 17:30S 24°07' W 046°21'0 0.0
2017-Nov-11 17:00S 24°07' W 046°21'0 0.0
2017-Nov-11 16:24S 24°07' W 046°21'0 0.0
2017-Nov-11 16:00S 24°07' W 046°21'0 0.0
2017-Nov-11 15:30S 24°07' W 046°21'0 0.0
2017-Nov-11 15:00S 24°07' W 046°21'0 0.0
2017-Nov-11 14:30S 24°07' W 046°21'0 0.0
2017-Nov-11 14:00S 24°07' W 046°21'0 0.0
2017-Nov-11 13:18S 24°07' W 046°21'0 0.0
2017-Nov-11 13:00S 24°07' W 046°21'0 0.0
2017-Nov-11 12:30S 24°07' W 046°21'0 0.0
2017-Nov-11 12:00S 24°07' W 046°21'0 0.1
2017-Nov-11 11:30S 24°07' W 046°21'0 0.0
2017-Nov-11 11:00S 24°07' W 046°21'0 0.0
2017-Nov-11 10:30S 24°07' W 046°21'0 0.0
2017-Nov-11 10:00S 24°07' W 046°21'0 0.0
2017-Nov-11 09:30S 24°07' W 046°21'0 0.0
2017-Nov-11 08:57S 24°07' W 046°21'0 0.0
2017-Nov-11 08:30S 24°07' W 046°21'0 0.0
2017-Nov-11 08:00S 24°07' W 046°21'0 0.0
2017-Nov-11 07:27S 24°07' W 046°21'0 0.0
2017-Nov-11 07:00S 24°07' W 046°21'0 0.0
2017-Nov-11 06:24S 24°07' W 046°21'0 0.1
2017-Nov-11 06:00S 24°07' W 046°21'0 0.0
2017-Nov-11 05:30S 24°07' W 046°21'0 0.0
2017-Nov-11 05:00S 24°07' W 046°21'0 0.0
2017-Nov-11 04:30S 24°07' W 046°21'0 0.0
2017-Nov-11 03:57S 24°07' W 046°21'0 0.1
2017-Nov-11 03:24S 24°07' W 046°21'0 0.0
2017-Nov-11 03:00S 24°07' W 046°21'0 0.0
2017-Nov-11 02:24S 24°07' W 046°21'0 0.0
2017-Nov-11 02:00S 24°07' W 046°21'0 0.1
2017-Nov-11 01:21S 24°07' W 046°21'0 0.1
2017-Nov-11 01:00S 24°07' W 046°21'0 0.3
2017-Nov-11 00:27S 24°07' W 046°21'0 0.1
2017-Nov-11 00:00S 24°07' W 046°21'0 0.0
2017-Nov-10 23:24S 24°07' W 046°21'0 0.1
2017-Nov-10 23:00S 24°08' W 046°21'0 0.0
2017-Nov-10 22:30S 24°08' W 046°21'0 0.0
2017-Nov-10 22:00S 24°07' W 046°21'0 0.0
2017-Nov-10 21:27S 24°07' W 046°21'0 0.0
2017-Nov-10 21:00S 24°07' W 046°21'0 0.0
2017-Nov-10 20:30S 24°07' W 046°21'0 0.0
2017-Nov-10 19:48S 24°07' W 046°21'0 0.0
2017-Nov-10 19:30S 24°07' W 046°21'0 0.0
2017-Nov-10 18:54S 24°07' W 046°21'0 0.0
2017-Nov-10 18:30S 24°07' W 046°21'0 0.0
2017-Nov-10 18:00S 24°07' W 046°21'0 0.0
2017-Nov-10 17:24S 24°07' W 046°21'0 0.0
2017-Nov-10 17:00S 24°07' W 046°21'0 0.0
2017-Nov-10 16:24S 24°07' W 046°21'0 0.0
2017-Nov-10 15:54S 24°07' W 046°21'0 0.0
2017-Nov-10 15:30S 24°07' W 046°21'0 0.0
2017-Nov-10 15:00S 24°07' W 046°21'0 0.0
2017-Nov-10 14:30S 24°08' W 046°21'1 1.3
2017-Nov-10 14:00S 24°08' W 046°22'3 6.4
2017-Nov-10 13:30S 24°04' W 046°22'5 9.3
2017-Nov-10 13:00S 24°00' W 046°20'3 5.6
2017-Nov-10 12:30S 23°59' W 046°17'0 0.6
2017-Nov-10 12:00S 23°58' W 046°17'0 0.0
2017-Nov-10 11:30S 23°58' W 046°17'0 0.0
2017-Nov-10 11:00S 23°58' W 046°17'0 0.0
2017-Nov-10 10:24S 23°58' W 046°17'0 0.0
2017-Nov-10 10:00S 23°58' W 046°17'0 0.0
2017-Nov-10 09:30S 23°58' W 046°17'0 0.0
2017-Nov-10 09:00S 23°58' W 046°17'0 0.0
2017-Nov-10 08:30S 23°58' W 046°17'0 0.0
2017-Nov-10 08:00S 23°58' W 046°17'0 0.0
2017-Nov-10 07:21S 23°58' W 046°17'0 0.0
2017-Nov-10 07:00S 23°58' W 046°17'0 0.0
2017-Nov-10 06:30S 23°58' W 046°17'0 0.0
2017-Nov-10 05:57S 23°58' W 046°17'0 0.0
2017-Nov-10 05:30S 23°58' W 046°17'0 0.0
2017-Nov-10 04:48S 23°58' W 046°17'0 0.0
2017-Nov-10 04:30S 23°58' W 046°17'0 0.0
2017-Nov-10 03:57S 23°58' W 046°17'0 0.0
2017-Nov-10 03:30S 23°58' W 046°17'0 0.0
2017-Nov-10 03:00S 23°58' W 046°17'0 0.0
2017-Nov-10 02:27S 23°58' W 046°17'0 0.0
2017-Nov-10 02:00S 23°58' W 046°17'0 0.0
2017-Nov-10 01:30S 23°58' W 046°17'0 0.0
2017-Nov-10 00:48S 23°58' W 046°17'0 0.0
2017-Nov-10 00:24S 23°58' W 046°17'0 0.0
2017-Nov-10 00:00S 23°58' W 046°17'0 0.0
2017-Nov-09 23:30S 23°58' W 046°17'0 0.0
2017-Nov-09 22:54S 23°58' W 046°17'0 0.0
2017-Nov-09 22:30S 23°58' W 046°17'0 0.0
2017-Nov-09 22:00S 23°58' W 046°17'0 0.0
2017-Nov-09 21:30S 23°58' W 046°17'0 0.0
2017-Nov-09 21:00S 23°58' W 046°17'0 0.0
2017-Nov-09 20:30S 23°58' W 046°17'0 0.0
2017-Nov-09 19:57S 23°58' W 046°17'0 0.0
2017-Nov-09 19:30S 23°58' W 046°17'0 0.0
2017-Nov-09 18:57S 23°58' W 046°17'0 0.0
2017-Nov-09 18:21S 23°58' W 046°17'0 0.0
2017-Nov-09 18:00S 23°58' W 046°17'0 0.0
2017-Nov-09 17:30S 23°58' W 046°17'0 0.0
2017-Nov-09 16:18S 23°58' W 046°17'0 0.0
2017-Nov-09 15:54S 23°58' W 046°17'0 0.0
2017-Nov-09 15:30S 23°58' W 046°17'0 0.0
2017-Nov-09 15:00S 23°58' W 046°17'0 0.0
2017-Nov-09 14:30S 23°58' W 046°17'0 0.0
2017-Nov-09 13:57S 23°58' W 046°17'0 0.0
2017-Nov-09 13:30S 23°58' W 046°17'0 0.0
2017-Nov-09 13:00S 23°58' W 046°17'0 0.0
2017-Nov-09 12:24S 23°58' W 046°17'0 0.0
2017-Nov-09 12:00S 23°58' W 046°17'0 0.0
2017-Nov-09 11:30S 23°58' W 046°17'0 0.0
2017-Nov-09 11:00S 23°58' W 046°17'0 0.0
2017-Nov-09 10:30S 23°58' W 046°17'0 0.0
2017-Nov-09 10:00S 23°58' W 046°17'0 0.0
2017-Nov-09 09:30S 23°58' W 046°17'0 0.0
2017-Nov-09 09:00S 23°58' W 046°17'0 0.0
2017-Nov-09 08:30S 23°58' W 046°17'0 0.0
2017-Nov-09 08:00S 23°58' W 046°17'0 0.0
2017-Nov-09 07:30S 23°58' W 046°17'0 0.0
2017-Nov-09 07:00S 23°58' W 046°17'0 0.0
2017-Nov-09 06:30S 23°58' W 046°17'0 0.0
2017-Nov-09 06:00S 23°58' W 046°17'0 0.0
2017-Nov-09 05:30S 23°58' W 046°17'0 0.0
2017-Nov-09 05:00S 23°58' W 046°17'0 0.0
2017-Nov-09 04:30S 23°58' W 046°17'0 0.0
2017-Nov-09 04:00S 23°58' W 046°17'0 0.0
2017-Nov-09 03:30S 23°58' W 046°17'0 0.0
2017-Nov-09 02:54S 23°58' W 046°17'0 0.0
2017-Nov-09 02:21S 23°58' W 046°17'0 0.0
2017-Nov-09 01:54S 23°58' W 046°17'0 0.0
2017-Nov-09 01:30S 23°58' W 046°17'0 0.0
2017-Nov-09 01:00S 23°58' W 046°17'0 0.0
2017-Nov-09 00:30S 23°58' W 046°17'0 0.0
2017-Nov-08 23:42S 23°58' W 046°17'0 0.0
2017-Nov-08 23:30S 23°58' W 046°17'0 0.0
2017-Nov-08 23:00S 23°58' W 046°17'0 0.0
2017-Nov-08 22:30S 23°58' W 046°17'0 0.0
2017-Nov-08 22:00S 23°58' W 046°17'0 0.0
2017-Nov-08 21:24S 23°58' W 046°17'0 0.0
2017-Nov-08 21:00S 23°58' W 046°17'0 0.0
2017-Nov-08 20:30S 23°58' W 046°17'0 0.0
2017-Nov-08 20:00S 23°58' W 046°17'0 0.0
2017-Nov-08 19:30S 23°58' W 046°17'0 0.0
2017-Nov-08 19:00S 23°58' W 046°17'0 0.0
2017-Nov-08 18:30S 23°58' W 046°17'0 0.0
2017-Nov-08 18:00S 23°58' W 046°17'0 0.0
2017-Nov-08 17:30S 23°58' W 046°17'0 0.0
2017-Nov-08 17:00S 23°58' W 046°17'  

Dump ship's entire track history